KTYR/TYR METAR and TAF weather

Enter ICAO airport designator
Station Type Date Time Source
KTYR METAR 2020/07/04 01:53 UTC NOAA

KTYR 040153Z 24004KT 10SM -RA FEW100 SCT110 27/23 A2996 RMK AO2 RAB22 SLP138 P0002 T02670233


Station Type Date Time Source
KTYR Decoded METAR 2020/07/04 01:53 UTC NOAA

TYLER POUNDS FIELDS, TX, United States (KTYR) 32-21N 095-24W 165M
Jul 03, 2020 - 09:53 PM EDT / 2020.07.04 0153 UTC
Wind: from the WSW (240 degrees) at 5 MPH (4 KT):0
Visibility: 10 mile(s):0
Sky conditions: partly cloudy
Weather: light rain
Precipitation last hour: 0.02 inches
Temperature: 80.1 F (26.7 C)
Dew Point: 73.9 F (23.3 C)
Relative Humidity: 81%
Pressure (altimeter): 29.96 in. Hg (1014 hPa)
ob: KTYR 040153Z 24004KT 10SM -RA FEW100 SCT110 27/23 A2996 RMK AO2 RAB22 SLP138 P0002 T02670233
cycle: 2

Station Type Date Time Source
KTYR TAF 2020/07/04 00:18 UTC NOAA

TAF
AMD KTYR 040017Z 0400/0424 VRB05KT P6SM VCTS FEW050CB BKN080 BKN250
TEMPO 0400/0403 VRB15G25KT 3SM TSRA BKN050CB OVC080
FM041000 VRB03KT 5SM BR SCT030 SCT250
FM041400 27005KT P6SM BKN040 BKN250
FM041800 29007KT P6SM VCTS BKN040CB BKN150 BKN250

Example: see airport list